createdAt,value
2023-05-07T00:01:31.066Z,11.10
2023-05-07T00:03:58.041Z,11.10
2023-05-07T00:06:25.048Z,11.10
2023-05-07T00:08:51.925Z,11.00
2023-05-07T00:11:18.671Z,11.00
2023-05-07T00:13:45.366Z,11.00
2023-05-07T00:16:12.253Z,11.00
2023-05-07T00:18:39.083Z,11.00
2023-05-07T00:21:05.912Z,10.90
2023-05-07T00:23:32.716Z,11.00
2023-05-07T00:25:59.451Z,10.90
2023-05-07T00:28:26.181Z,10.90
2023-05-07T00:30:53.502Z,10.90
2023-05-07T00:33:21.627Z,10.80
2023-05-07T00:35:48.762Z,10.80
2023-05-07T00:38:15.843Z,10.80
2023-05-07T00:40:42.537Z,10.80
2023-05-07T00:43:09.964Z,10.80
2023-05-07T00:45:36.867Z,10.80
2023-05-07T00:48:04.676Z,10.90
2023-05-07T00:50:31.993Z,10.90
2023-05-07T00:52:59.414Z,10.90
2023-05-07T00:55:26.287Z,10.90
2023-05-07T00:57:53.136Z,10.90
2023-05-07T01:00:20.976Z,10.90
2023-05-07T01:02:48.116Z,10.90
2023-05-07T01:05:18.361Z,10.90
2023-05-07T01:07:45.854Z,10.90
2023-05-07T01:10:13.438Z,10.90
2023-05-07T01:12:41.877Z,10.90
2023-05-07T01:15:10.300Z,10.80
2023-05-07T01:17:38.895Z,10.80
2023-05-07T01:20:07.982Z,10.80
2023-05-07T01:22:39.341Z,10.80
2023-05-07T01:25:08.332Z,10.80
2023-05-07T01:27:36.454Z,10.80
2023-05-07T01:30:03.870Z,10.80
2023-05-07T01:32:49.012Z,10.80
2023-05-07T01:35:23.902Z,10.80
2023-05-07T01:37:51.357Z,10.80
2023-05-07T01:40:18.514Z,10.80
2023-05-07T01:42:46.428Z,10.80
2023-05-07T01:45:13.215Z,10.80
2023-05-07T01:47:40.744Z,10.80
2023-05-07T01:50:09.781Z,10.80
2023-05-07T01:52:39.096Z,10.80
2023-05-07T01:55:07.128Z,10.80
2023-05-07T01:57:33.912Z,10.80
2023-05-07T02:00:00.622Z,10.80
2023-05-07T02:02:27.482Z,10.80
2023-05-07T02:04:54.303Z,10.70
2023-05-07T02:07:21.071Z,10.70
2023-05-07T02:09:48.010Z,10.70
2023-05-07T02:12:14.787Z,10.70
2023-05-07T02:14:41.525Z,10.60
2023-05-07T02:17:08.793Z,10.70
2023-05-07T02:19:36.156Z,10.60
2023-05-07T02:22:03.022Z,10.70
2023-05-07T02:24:29.826Z,10.60
2023-05-07T02:26:56.757Z,10.60
2023-05-07T02:29:23.537Z,10.60
2023-05-07T02:31:54.057Z,10.60
2023-05-07T02:34:20.854Z,10.50
2023-05-07T02:36:47.624Z,10.50
2023-05-07T02:39:14.858Z,10.50
2023-05-07T02:41:41.800Z,10.50
2023-05-07T02:44:08.563Z,10.50
2023-05-07T02:46:35.354Z,10.50
2023-05-07T02:49:02.052Z,10.50
2023-05-07T02:51:28.758Z,10.40
2023-05-07T02:53:56.072Z,10.40
2023-05-07T02:56:23.015Z,10.40
2023-05-07T02:58:49.740Z,10.40
2023-05-07T03:01:16.548Z,10.40
2023-05-07T03:03:43.333Z,10.40
2023-05-07T03:06:10.360Z,10.40
2023-05-07T03:08:37.644Z,10.40
2023-05-07T03:11:04.520Z,10.30
2023-05-07T03:13:31.429Z,10.30
2023-05-07T03:15:58.156Z,10.30
2023-05-07T03:18:24.970Z,10.30
2023-05-07T03:20:52.682Z,10.30
2023-05-07T03:23:19.393Z,10.20
2023-05-07T03:25:46.176Z,10.20
2023-05-07T03:28:12.874Z,10.20
2023-05-07T03:30:39.587Z,10.20
2023-05-07T03:33:06.455Z,10.20
2023-05-07T03:35:33.243Z,10.20
2023-05-07T03:37:59.970Z,10.20
2023-05-07T03:40:26.730Z,10.10
2023-05-07T03:42:53.475Z,10.10
2023-05-07T03:45:20.566Z,10.10
2023-05-07T03:47:47.276Z,10.10
2023-05-07T03:50:14.209Z,10.10
2023-05-07T03:52:41.565Z,10.10
2023-05-07T03:55:08.759Z,10.10
2023-05-07T03:57:35.480Z,10.10
2023-05-07T04:00:02.194Z,10.10
2023-05-07T04:02:29.138Z,10.10
2023-05-07T04:04:56.240Z,10.00
2023-05-07T04:07:23.324Z,10.00
2023-05-07T04:09:50.040Z,10.00
2023-05-07T04:12:16.739Z,10.00
2023-05-07T04:14:43.493Z,10.00
2023-05-07T04:17:11.780Z,10.00
2023-05-07T04:19:38.488Z,10.00
2023-05-07T04:22:05.315Z,10.10
2023-05-07T04:24:35.092Z,10.10
2023-05-07T04:27:02.633Z,10.10
2023-05-07T04:29:29.679Z,10.20
2023-05-07T04:31:57.378Z,10.30
2023-05-07T04:34:24.219Z,10.30
2023-05-07T04:36:51.007Z,10.40
2023-05-07T04:39:17.900Z,10.40
2023-05-07T04:41:44.665Z,10.50
2023-05-07T04:44:11.796Z,10.70
2023-05-07T04:46:38.576Z,10.80
2023-05-07T04:49:05.303Z,10.90
2023-05-07T04:51:33.667Z,11.00
2023-05-07T04:54:00.463Z,11.20
2023-05-07T04:56:30.777Z,11.30
2023-05-07T04:58:57.449Z,11.40
2023-05-07T05:01:24.260Z,11.50
2023-05-07T05:03:51.085Z,11.70
2023-05-07T05:06:17.838Z,11.80
2023-05-07T05:08:44.568Z,12.00
2023-05-07T05:11:11.515Z,12.10
2023-05-07T05:13:38.303Z,12.40
2023-05-07T05:16:05.469Z,12.60
2023-05-07T05:18:32.213Z,13.10
2023-05-07T05:20:58.884Z,14.00
2023-05-07T05:23:25.705Z,15.00
2023-05-07T05:25:58.520Z,16.30
2023-05-07T05:28:25.336Z,17.80
2023-05-07T05:30:52.188Z,19.50
2023-05-07T05:33:18.895Z,21.20
2023-05-07T05:35:46.227Z,22.80
2023-05-07T05:38:13.076Z,23.90
2023-05-07T05:40:39.874Z,25.00
2023-05-07T05:43:07.252Z,26.10
2023-05-07T05:45:34.037Z,27.10
2023-05-07T05:48:01.298Z,28.10
2023-05-07T05:50:28.081Z,29.00
2023-05-07T05:52:54.931Z,29.90
2023-05-07T05:55:21.986Z,30.90
2023-05-07T05:57:49.209Z,31.70
2023-05-07T06:00:17.078Z,32.40
2023-05-07T06:02:44.070Z,33.10
2023-05-07T06:05:11.131Z,33.70
2023-05-07T06:07:37.891Z,34.30
2023-05-07T06:10:05.017Z,34.80
2023-05-07T06:12:31.775Z,35.40
2023-05-07T06:14:58.480Z,35.90
2023-05-07T06:17:25.352Z,36.20
2023-05-07T06:19:53.175Z,36.50
2023-05-07T06:22:20.094Z,36.90
2023-05-07T06:24:47.161Z,37.20
2023-05-07T06:27:13.947Z,37.60
2023-05-07T06:29:40.829Z,38.00
2023-05-07T06:32:11.833Z,38.40
2023-05-07T06:34:39.717Z,38.60
2023-05-07T06:37:07.086Z,38.50
2023-05-07T06:39:34.244Z,38.60
2023-05-07T06:42:01.794Z,38.60
2023-05-07T06:44:28.552Z,38.80
2023-05-07T06:46:55.318Z,38.90
2023-05-07T06:49:22.024Z,39.30
2023-05-07T06:51:48.769Z,39.70
2023-05-07T06:54:15.532Z,39.70
2023-05-07T06:56:42.837Z,39.80
2023-05-07T06:59:09.588Z,39.50
2023-05-07T07:01:36.337Z,39.20
2023-05-07T07:04:03.076Z,39.10
2023-05-07T07:06:30.722Z,38.70
2023-05-07T07:08:57.501Z,38.50
2023-05-07T07:11:24.262Z,38.60
2023-05-07T07:13:51.729Z,38.90
2023-05-07T07:16:18.452Z,38.70
2023-05-07T07:18:45.199Z,38.50
2023-05-07T07:21:11.894Z,38.50
2023-05-07T07:23:38.584Z,38.40
2023-05-07T07:26:06.973Z,38.20
2023-05-07T07:28:33.711Z,37.90
2023-05-07T07:31:00.437Z,38.20
2023-05-07T07:33:27.225Z,38.40
2023-05-07T07:35:53.946Z,38.40
2023-05-07T07:38:21.313Z,38.80
2023-05-07T07:40:48.861Z,39.20
2023-05-07T07:43:15.615Z,39.70
2023-05-07T07:45:42.859Z,40.00
2023-05-07T07:48:09.672Z,40.30
2023-05-07T07:50:44.674Z,40.60
2023-05-07T07:53:12.267Z,40.70
2023-05-07T07:55:42.125Z,40.40
2023-05-07T07:58:08.866Z,40.40
2023-05-07T08:00:35.645Z,40.70
2023-05-07T08:03:04.191Z,40.60
2023-05-07T08:05:31.223Z,40.50
2023-05-07T08:07:58.007Z,40.70
2023-05-07T08:10:24.833Z,40.40
2023-05-07T08:12:51.826Z,40.20
2023-05-07T08:15:18.841Z,39.10
2023-05-07T08:17:45.584Z,38.60
2023-05-07T08:20:12.558Z,38.20
2023-05-07T08:22:39.639Z,37.90
2023-05-07T08:25:06.710Z,37.60
2023-05-07T08:27:33.417Z,37.80
2023-05-07T08:30:00.240Z,38.20
2023-05-07T08:32:27.051Z,38.80
2023-05-07T08:34:53.778Z,38.80
2023-05-07T08:37:20.647Z,38.80
2023-05-07T08:39:47.726Z,37.80
2023-05-07T08:42:17.386Z,37.30
2023-05-07T08:44:45.317Z,37.50
2023-05-07T08:47:12.079Z,37.30
2023-05-07T08:49:39.014Z,36.80
2023-05-07T08:52:08.606Z,36.40
2023-05-07T08:54:38.994Z,36.20
2023-05-07T08:57:05.825Z,36.20
2023-05-07T08:59:32.548Z,36.40
2023-05-07T09:01:59.396Z,36.20
2023-05-07T09:04:26.256Z,36.20
2023-05-07T09:06:53.027Z,35.50
2023-05-07T09:09:19.870Z,34.60
2023-05-07T09:11:46.666Z,34.00
2023-05-07T09:14:13.714Z,34.10
2023-05-07T09:16:40.691Z,34.30
2023-05-07T09:19:07.544Z,34.80
2023-05-07T09:21:34.285Z,35.30
2023-05-07T09:24:00.971Z,35.10
2023-05-07T09:26:29.178Z,34.90
2023-05-07T09:28:56.121Z,34.60
2023-05-07T09:31:24.639Z,34.60
2023-05-07T09:33:51.693Z,34.50
2023-05-07T09:36:19.242Z,34.40
2023-05-07T09:38:46.659Z,34.10
2023-05-07T09:41:14.063Z,33.70
2023-05-07T09:43:41.792Z,33.20
2023-05-07T09:46:13.440Z,32.80
2023-05-07T09:48:41.745Z,33.10
2023-05-07T09:51:30.718Z,33.10
2023-05-07T09:53:58.818Z,33.40
2023-05-07T09:56:26.391Z,33.30
2023-05-07T09:58:55.243Z,33.20
2023-05-07T10:01:23.219Z,33.00
2023-05-07T10:03:52.263Z,32.70
2023-05-07T10:06:20.514Z,32.10
2023-05-07T10:08:47.841Z,31.70
2023-05-07T10:11:16.684Z,31.80
2023-05-07T10:13:44.609Z,32.00
2023-05-07T10:16:11.721Z,31.80
2023-05-07T10:18:39.538Z,31.50
2023-05-07T10:21:15.278Z,31.10
2023-05-07T10:23:45.721Z,30.50
2023-05-07T10:26:14.060Z,30.20
2023-05-07T10:28:44.173Z,30.20
2023-05-07T10:31:29.497Z,29.90
2023-05-07T10:33:57.787Z,29.60
2023-05-07T10:36:25.426Z,29.50
2023-05-07T10:38:52.867Z,29.50
2023-05-07T10:41:19.771Z,29.30
2023-05-07T10:43:47.771Z,29.10
2023-05-07T10:46:22.012Z,28.80
2023-05-07T10:49:12.735Z,28.70
2023-05-07T10:51:40.048Z,28.70
2023-05-07T10:54:12.860Z,28.60
2023-05-07T10:56:44.503Z,28.40
2023-05-07T10:59:31.634Z,28.10
2023-05-07T11:02:05.006Z,27.70
2023-05-07T11:04:35.705Z,27.50
2023-05-07T11:07:12.889Z,27.10
2023-05-07T11:10:05.710Z,26.80
2023-05-07T11:12:39.150Z,26.30
2023-05-07T11:15:10.928Z,26.10
2023-05-07T11:18:15.515Z,25.70
2023-05-07T11:20:53.543Z,25.40
2023-05-07T11:23:38.781Z,25.40
2023-05-07T11:26:07.362Z,25.70
2023-05-07T11:28:44.370Z,26.00
2023-05-07T11:31:11.965Z,26.10
2023-05-07T11:33:39.571Z,26.10
2023-05-07T11:36:08.915Z,26.30
2023-05-07T11:38:39.761Z,26.30
2023-05-07T11:41:07.012Z,26.30
2023-05-07T11:43:34.053Z,26.40
2023-05-07T11:46:10.435Z,26.40
2023-05-07T11:48:37.937Z,26.10
2023-05-07T11:51:13.108Z,25.90
2023-05-07T11:53:42.576Z,25.60
2023-05-07T11:56:14.806Z,25.50
2023-05-07T11:58:43.454Z,25.50
2023-05-07T12:01:11.919Z,25.50
2023-05-07T12:03:43.768Z,25.60
2023-05-07T12:06:12.045Z,25.40
2023-05-07T12:08:40.465Z,25.30
2023-05-07T12:11:26.779Z,25.20
2023-05-07T12:13:58.969Z,25.10
2023-05-07T12:16:27.106Z,25.00
2023-05-07T12:18:56.105Z,24.90
2023-05-07T12:21:24.064Z,24.90
2023-05-07T12:23:51.056Z,24.80
2023-05-07T12:26:18.057Z,24.60
2023-05-07T12:28:44.794Z,24.60
2023-05-07T12:31:11.839Z,24.40
2023-05-07T12:33:38.707Z,24.30
2023-05-07T12:36:08.658Z,24.20
2023-05-07T12:38:39.510Z,24.20
2023-05-07T12:41:08.421Z,24.20
2023-05-07T12:43:35.592Z,24.10
2023-05-07T12:46:07.547Z,24.10
2023-05-07T12:48:36.655Z,24.20
2023-05-07T12:51:03.715Z,24.20
2023-05-07T12:53:32.213Z,24.20
2023-05-07T12:56:00.688Z,24.10
2023-05-07T12:58:28.788Z,23.90
2023-05-07T13:01:00.424Z,23.80
2023-05-07T13:03:31.525Z,23.80
2023-05-07T13:06:00.783Z,23.80
2023-05-07T13:08:35.224Z,23.80
2023-05-07T13:11:04.832Z,23.80
2023-05-07T13:13:36.853Z,23.70
2023-05-07T13:16:04.593Z,23.70
2023-05-07T13:18:32.460Z,23.80
2023-05-07T13:21:00.314Z,23.80
2023-05-07T13:23:27.903Z,23.80
2023-05-07T13:25:57.924Z,23.80
2023-05-07T13:28:25.502Z,23.80
2023-05-07T13:30:55.715Z,23.70
2023-05-07T13:33:22.730Z,23.70
2023-05-07T13:35:49.484Z,23.70
2023-05-07T13:38:17.173Z,23.60
2023-05-07T13:40:44.104Z,23.50
2023-05-07T13:43:11.638Z,23.40
2023-05-07T13:45:38.604Z,23.30
2023-05-07T13:48:05.880Z,23.40
2023-05-07T13:50:32.730Z,23.50
2023-05-07T13:52:59.489Z,23.50
2023-05-07T13:55:26.846Z,23.50
2023-05-07T13:58:01.624Z,23.50
2023-05-07T14:00:29.963Z,23.40
2023-05-07T14:02:57.706Z,23.40
2023-05-07T14:05:25.548Z,23.50
2023-05-07T14:07:52.971Z,23.50
2023-05-07T14:10:20.624Z,23.50
2023-05-07T14:12:48.107Z,23.40
2023-05-07T14:15:15.622Z,23.20
2023-05-07T14:17:42.620Z,23.20
2023-05-07T14:20:10.940Z,23.10
2023-05-07T14:22:38.307Z,23.00
2023-05-07T14:25:07.117Z,23.00
2023-05-07T14:27:34.377Z,22.90
2023-05-07T14:30:01.165Z,22.90
2023-05-07T14:32:28.016Z,22.90
2023-05-07T14:34:54.785Z,22.90
2023-05-07T14:37:21.602Z,23.00
2023-05-07T14:39:51.042Z,23.00
2023-05-07T14:42:18.717Z,23.00
2023-05-07T14:44:46.451Z,22.90
2023-05-07T14:47:13.899Z,22.90
2023-05-07T14:49:41.698Z,22.80
2023-05-07T14:52:11.001Z,22.80
2023-05-07T14:54:39.277Z,22.80
2023-05-07T14:57:07.168Z,22.70
2023-05-07T14:59:34.198Z,22.70
2023-05-07T15:02:02.481Z,22.70
2023-05-07T15:04:30.669Z,22.60
2023-05-07T15:06:57.446Z,22.50
2023-05-07T15:09:24.185Z,22.50
2023-05-07T15:11:50.998Z,22.40
2023-05-07T15:14:17.857Z,22.30
2023-05-07T15:16:44.753Z,22.20
2023-05-07T15:19:11.546Z,22.10
2023-05-07T15:21:38.299Z,22.10
2023-05-07T15:24:05.581Z,22.10
2023-05-07T15:26:32.367Z,22.10
2023-05-07T15:28:59.204Z,22.00
2023-05-07T15:31:26.611Z,21.90
2023-05-07T15:33:53.562Z,21.90
2023-05-07T15:36:21.727Z,21.80
2023-05-07T15:38:48.555Z,21.80
2023-05-07T15:41:15.311Z,21.70
2023-05-07T15:43:47.334Z,21.60
2023-05-07T15:46:19.397Z,21.50
2023-05-07T15:48:46.536Z,21.40
2023-05-07T15:51:13.759Z,21.40
2023-05-07T15:53:41.108Z,21.30
2023-05-07T15:56:08.406Z,21.20
2023-05-07T15:58:36.250Z,21.10
2023-05-07T16:01:03.984Z,21.10
2023-05-07T16:03:31.474Z,21.00
2023-05-07T16:06:00.737Z,20.90
2023-05-07T16:08:27.696Z,20.90
2023-05-07T16:10:54.966Z,20.80
2023-05-07T16:13:21.871Z,20.80
2023-05-07T16:15:48.887Z,20.70
2023-05-07T16:18:16.262Z,20.70
2023-05-07T16:20:43.831Z,20.60
2023-05-07T16:23:10.717Z,20.60
2023-05-07T16:25:37.621Z,20.60
2023-05-07T16:28:04.526Z,20.50
2023-05-07T16:30:31.261Z,20.50
2023-05-07T16:32:58.046Z,20.40
2023-05-07T16:35:24.870Z,20.40
2023-05-07T16:37:51.708Z,20.40
2023-05-07T16:40:18.444Z,20.40
2023-05-07T16:42:45.310Z,20.40
2023-05-07T16:45:12.356Z,20.30
2023-05-07T16:47:39.322Z,20.30
2023-05-07T16:50:06.735Z,20.30
2023-05-07T16:52:33.603Z,20.30
2023-05-07T16:55:01.520Z,20.20
2023-05-07T16:57:30.088Z,20.20
2023-05-07T16:59:57.553Z,20.10
2023-05-07T17:02:24.539Z,20.10
2023-05-07T17:04:51.412Z,20.00
2023-05-07T17:07:18.251Z,20.00
2023-05-07T17:09:45.012Z,19.90
2023-05-07T17:12:11.746Z,19.90
2023-05-07T17:14:38.505Z,19.80
2023-05-07T17:17:05.268Z,19.80
2023-05-07T17:19:31.994Z,19.70
2023-05-07T17:21:58.692Z,19.70
2023-05-07T17:24:25.521Z,19.70
2023-05-07T17:26:52.240Z,19.60
2023-05-07T17:29:19.984Z,19.60
2023-05-07T17:31:46.923Z,19.60
2023-05-07T17:34:15.347Z,19.50
2023-05-07T17:36:42.052Z,19.50
2023-05-07T17:39:08.939Z,19.40
2023-05-07T17:41:38.656Z,19.40
2023-05-07T17:44:05.450Z,19.40
2023-05-07T17:46:33.006Z,19.30
2023-05-07T17:48:59.770Z,19.30
2023-05-07T17:51:33.654Z,19.20
2023-05-07T17:54:05.921Z,19.20
2023-05-07T17:56:32.790Z,19.10
2023-05-07T17:58:59.762Z,19.00
2023-05-07T18:01:26.733Z,19.00
2023-05-07T18:03:53.673Z,18.90
2023-05-07T18:06:22.284Z,18.90
2023-05-07T18:08:49.240Z,18.80
2023-05-07T18:11:16.015Z,18.80
2023-05-07T18:13:42.740Z,18.70
2023-05-07T18:16:09.784Z,18.70
2023-05-07T18:18:36.626Z,18.60
2023-05-07T18:21:03.746Z,18.60
2023-05-07T18:23:30.515Z,18.60
2023-05-07T18:25:57.281Z,18.50
2023-05-07T18:28:24.015Z,18.40
2023-05-07T18:30:50.824Z,18.40
2023-05-07T18:33:17.661Z,18.30
2023-05-07T18:35:44.593Z,18.30
2023-05-07T18:38:11.356Z,18.20
2023-05-07T18:40:43.733Z,18.20
2023-05-07T18:43:11.333Z,18.10
2023-05-07T18:45:38.287Z,18.10
2023-05-07T18:48:06.662Z,18.10
2023-05-07T18:50:33.961Z,18.10
2023-05-07T18:53:00.841Z,18.00
2023-05-07T18:55:27.657Z,18.00
2023-05-07T18:57:54.386Z,18.00
2023-05-07T19:00:21.245Z,17.90
2023-05-07T19:02:48.097Z,17.90
2023-05-07T19:05:14.867Z,17.90
2023-05-07T19:07:41.667Z,17.90
2023-05-07T19:10:08.944Z,17.80
2023-05-07T19:12:35.675Z,17.80
2023-05-07T19:15:02.468Z,17.80
2023-05-07T19:17:29.286Z,17.70
2023-05-07T19:19:56.067Z,17.70
2023-05-07T19:22:23.661Z,17.70
2023-05-07T19:24:50.476Z,17.70
2023-05-07T19:27:17.185Z,17.60
2023-05-07T19:29:44.011Z,17.60
2023-05-07T19:32:11.009Z,17.60
2023-05-07T19:34:37.851Z,17.60
2023-05-07T19:37:05.739Z,17.60
2023-05-07T19:39:32.495Z,17.50
2023-05-07T19:41:59.269Z,17.50
2023-05-07T19:44:26.008Z,17.50
2023-05-07T19:46:52.792Z,17.40
2023-05-07T19:49:19.542Z,17.30
2023-05-07T19:51:46.277Z,17.30
2023-05-07T19:54:13.047Z,17.20
2023-05-07T19:56:41.716Z,17.20
2023-05-07T19:59:09.190Z,17.20
2023-05-07T20:01:36.295Z,17.20
2023-05-07T20:04:03.246Z,17.20
2023-05-07T20:06:30.113Z,17.20
2023-05-07T20:08:57.040Z,17.20
2023-05-07T20:11:23.784Z,17.10
2023-05-07T20:13:50.680Z,17.10
2023-05-07T20:16:17.471Z,17.10
2023-05-07T20:18:44.207Z,17.10
2023-05-07T20:21:11.450Z,17.10
2023-05-07T20:23:38.224Z,17.10
2023-05-07T20:26:04.920Z,17.10
2023-05-07T20:28:31.656Z,17.00
2023-05-07T20:30:58.437Z,17.00
2023-05-07T20:33:26.801Z,17.00
2023-05-07T20:35:53.891Z,16.90
2023-05-07T20:38:20.811Z,16.90
2023-05-07T20:40:47.590Z,16.90
2023-05-07T20:43:14.351Z,16.80
2023-05-07T20:45:41.171Z,16.80
2023-05-07T20:48:07.913Z,16.80
2023-05-07T20:50:34.676Z,16.70
2023-05-07T20:53:01.976Z,16.70
2023-05-07T20:55:28.780Z,16.70
2023-05-07T20:57:55.589Z,16.60
2023-05-07T21:00:22.340Z,16.60
2023-05-07T21:02:49.142Z,16.50
2023-05-07T21:05:15.977Z,16.50
2023-05-07T21:07:42.841Z,16.40
2023-05-07T21:10:10.598Z,16.40
2023-05-07T21:12:37.578Z,16.40
2023-05-07T21:15:04.651Z,16.30
2023-05-07T21:17:33.458Z,16.30
2023-05-07T21:20:00.332Z,16.20
2023-05-07T21:22:27.119Z,16.20
2023-05-07T21:24:53.808Z,16.20
2023-05-07T21:27:20.636Z,16.10
2023-05-07T21:29:47.473Z,16.10
2023-05-07T21:32:14.521Z,16.10
2023-05-07T21:34:41.233Z,16.10
2023-05-07T21:37:07.999Z,16.00
2023-05-07T21:39:34.789Z,16.00
2023-05-07T21:42:01.729Z,16.00
2023-05-07T21:44:31.568Z,15.90
2023-05-07T21:46:58.300Z,15.90
2023-05-07T21:49:25.098Z,15.90
2023-05-07T21:51:51.836Z,15.90
2023-05-07T21:54:18.624Z,15.90
2023-05-07T21:56:45.592Z,15.90
2023-05-07T21:59:12.483Z,15.80
2023-05-07T22:01:39.410Z,15.80
2023-05-07T22:04:06.443Z,15.70
2023-05-07T22:06:33.267Z,15.70
2023-05-07T22:09:00.003Z,15.70
2023-05-07T22:11:26.836Z,15.70
2023-05-07T22:13:53.590Z,15.70
2023-05-07T22:16:20.343Z,15.60
2023-05-07T22:18:49.439Z,15.60
2023-05-07T22:21:16.533Z,15.60
2023-05-07T22:23:43.401Z,15.50
2023-05-07T22:26:12.139Z,15.50
2023-05-07T22:28:39.045Z,15.50
2023-05-07T22:31:06.001Z,15.40
2023-05-07T22:33:33.172Z,15.40
2023-05-07T22:35:59.973Z,15.30
2023-05-07T22:38:26.705Z,15.30
2023-05-07T22:40:53.566Z,15.30
2023-05-07T22:43:20.413Z,15.20
2023-05-07T22:45:47.212Z,15.20
2023-05-07T22:48:14.011Z,15.10
2023-05-07T22:50:41.290Z,15.10
2023-05-07T22:53:08.033Z,15.00
2023-05-07T22:55:35.054Z,15.00
2023-05-07T22:58:01.859Z,15.00
2023-05-07T23:00:28.646Z,15.00
2023-05-07T23:02:55.478Z,14.90
2023-05-07T23:05:22.839Z,14.90
2023-05-07T23:07:49.542Z,14.80
2023-05-07T23:10:16.391Z,14.80
2023-05-07T23:12:43.868Z,14.80
2023-05-07T23:15:11.427Z,14.80
2023-05-07T23:17:38.243Z,14.70
2023-05-07T23:20:05.577Z,14.70
2023-05-07T23:22:32.333Z,14.70
2023-05-07T23:24:59.092Z,14.70
2023-05-07T23:27:25.996Z,14.70
2023-05-07T23:29:52.789Z,14.60
2023-05-07T23:32:19.547Z,14.60
2023-05-07T23:34:50.443Z,14.60
2023-05-07T23:37:17.221Z,14.60
2023-05-07T23:39:45.612Z,14.60
2023-05-07T23:42:12.449Z,14.50
2023-05-07T23:44:39.315Z,14.50
2023-05-07T23:47:06.085Z,14.50
2023-05-07T23:49:32.805Z,14.50
2023-05-07T23:51:59.509Z,14.50
2023-05-07T23:54:26.285Z,14.50
2023-05-07T23:56:52.970Z,14.60
2023-05-07T23:59:19.800Z,14.50
